Bloomington, IN

3:49 AM EDT on August 18, 2017 (GMT -0400)
Monroe County | | Change Station

Elev 843 ft 39.15 °N, 86.62 °W | Updated 56 minutes ago

Scattered Clouds
Scattered Clouds
71 °F
Feels Like 71 °F
N
4
Wind Variable Wind from WSW

Today
High -- | Low -- °F
--% Chance of Precip.
Yesterday
High -- | Low -- °F
Precip. -- in
Pressure 29.83 in
Visibility 10.0 miles
Clouds Scattered Clouds 6500 ft
Dew Point 67 °F
Humidity 87%
Rainfall 0.00 in
Snow Depth Not available.
7:02 AM 8:37 PM
Waning Crescent, 16% visible
METAR KBMG 180653Z AUTO 25003KT 10SM SCT065 22/19 A2986 RMK AO2 SLP101 T02170194
Pressure 29.83 in
Visibility 10.0 miles
Clouds Scattered Clouds 6500 ft
Dew Point 67 °F
Humidity 87%
Rainfall 0.00 in
Snow Depth Not available.
7:02 AM 8:37 PM
Waning Crescent, 16% visible
METAR KBMG 180653Z AUTO 25003KT 10SM SCT065 22/19 A2986 RMK AO2 SLP101 T02170194

Get Severe Weather Alerts

Thanks for signing up!

Be on the lookout for a verification email in your inbox.

You'll start receiving the daily forecast at 6 AM.

×

10-Day Weather Forecast

Almanac

Astronomy

Aug. 18, 2017 Rise Set
Actual Time
Civil Twilight
Nautical Twilight
Astronomical Twilight
Moon
Length of Visible Light
Length of Day
Tomorrow will be .
, % of the Moon is Illuminated

Today's Extremes

State Highs State Lows

Community

WunderPhotos

Category 6

Welcome to Category 6. This is the collective home for Weather Underground's featured writeups by Dr. Jeff Masters (right), Bob Henson (left), Chris Burt, and other regular contributors.

Nearby

Air Quality

  Air Quality AQ Index Pollutant
Not available.

Snow Depth

Station Depth Elevation

Earthquake Activity

City Distance Mag. Time & Date
Minimum magnitude displayed is 2.5.

Coastal Water Temperatures

Place Temperature

Stations

Nearby Weather Stations

Station Location Temp. Windchill Dew Point Humidity Wind Precip. Elev Updated Type
                   

Watches & Warnings

There are currently no watches in effect.